sensor_id;sensor_type;location;lat;lon;timestamp;temperature;humidity
19050;DHT22;9657;45.940;12.840;2022-12-18T00:02:21;11.10;72.50
19050;DHT22;9657;45.940;12.840;2022-12-18T00:04:48;11.10;72.50
19050;DHT22;9657;45.940;12.840;2022-12-18T00:07:15;11.10;72.40
19050;DHT22;9657;45.940;12.840;2022-12-18T00:09:42;11.10;72.40
19050;DHT22;9657;45.940;12.840;2022-12-18T00:12:09;11.10;72.40
19050;DHT22;9657;45.940;12.840;2022-12-18T00:14:36;11.10;72.40
19050;DHT22;9657;45.940;12.840;2022-12-18T00:17:05;11.10;72.30
19050;DHT22;9657;45.940;12.840;2022-12-18T00:19:32;11.10;72.30
19050;DHT22;9657;45.940;12.840;2022-12-18T00:21:59;11.10;73.00
19050;DHT22;9657;45.940;12.840;2022-12-18T00:24:26;11.10;72.30
19050;DHT22;9657;45.940;12.840;2022-12-18T00:26:53;11.10;72.30
19050;DHT22;9657;45.940;12.840;2022-12-18T00:29:20;11.10;72.10
19050;DHT22;9657;45.940;12.840;2022-12-18T00:31:47;11.10;72.20
19050;DHT22;9657;45.940;12.840;2022-12-18T00:34:15;11.10;72.10
19050;DHT22;9657;45.940;12.840;2022-12-18T00:36:42;11.00;72.00
19050;DHT22;9657;45.940;12.840;2022-12-18T00:39:10;11.10;72.00
19050;DHT22;9657;45.940;12.840;2022-12-18T00:41:38;11.10;72.00
19050;DHT22;9657;45.940;12.840;2022-12-18T00:44:22;11.00;72.00
19050;DHT22;9657;45.940;12.840;2022-12-18T00:46:49;11.00;72.70
19050;DHT22;9657;45.940;12.840;2022-12-18T00:49:19;11.00;71.90
19050;DHT22;9657;45.940;12.840;2022-12-18T00:51:46;11.00;71.90
19050;DHT22;9657;45.940;12.840;2022-12-18T00:54:13;11.00;71.90
19050;DHT22;9657;45.940;12.840;2022-12-18T00:56:40;11.00;71.90
19050;DHT22;9657;45.940;12.840;2022-12-18T00:59:07;11.00;71.90
19050;DHT22;9657;45.940;12.840;2022-12-18T01:01:34;11.00;71.90
19050;DHT22;9657;45.940;12.840;2022-12-18T01:04:02;11.00;71.80
19050;DHT22;9657;45.940;12.840;2022-12-18T01:06:31;11.00;71.80
19050;DHT22;9657;45.940;12.840;2022-12-18T01:08:58;11.00;71.80
19050;DHT22;9657;45.940;12.840;2022-12-18T01:11:25;11.00;71.80
19050;DHT22;9657;45.940;12.840;2022-12-18T01:13:53;11.00;71.80
19050;DHT22;9657;45.940;12.840;2022-12-18T01:16:20;11.00;71.70
19050;DHT22;9657;45.940;12.840;2022-12-18T01:18:50;11.00;71.80
19050;DHT22;9657;45.940;12.840;2022-12-18T01:21:17;11.00;71.70
19050;DHT22;9657;45.940;12.840;2022-12-18T01:23:47;11.00;71.70
19050;DHT22;9657;45.940;12.840;2022-12-18T01:26:17;11.00;71.70
19050;DHT22;9657;45.940;12.840;2022-12-18T01:28:44;11.00;71.70
19050;DHT22;9657;45.940;12.840;2022-12-18T01:31:17;11.00;71.60
19050;DHT22;9657;45.940;12.840;2022-12-18T01:33:44;11.00;71.60
19050;DHT22;9657;45.940;12.840;2022-12-18T01:36:16;11.00;71.60
19050;DHT22;9657;45.940;12.840;2022-12-18T01:38:44;11.00;71.60
19050;DHT22;9657;45.940;12.840;2022-12-18T01:41:17;11.00;71.60
19050;DHT22;9657;45.940;12.840;2022-12-18T01:43:50;11.00;71.60
19050;DHT22;9657;45.940;12.840;2022-12-18T01:46:19;11.00;71.60
19050;DHT22;9657;45.940;12.840;2022-12-18T01:48:47;11.00;71.60
19050;DHT22;9657;45.940;12.840;2022-12-18T01:51:16;11.00;71.60
19050;DHT22;9657;45.940;12.840;2022-12-18T01:53:44;11.00;71.60
19050;DHT22;9657;45.940;12.840;2022-12-18T01:56:15;10.90;71.50
19050;DHT22;9657;45.940;12.840;2022-12-18T01:58:52;11.00;71.60
19050;DHT22;9657;45.940;12.840;2022-12-18T02:03:56;11.00;71.50
19050;DHT22;9657;45.940;12.840;2022-12-18T02:06:40;11.00;71.50
19050;DHT22;9657;45.940;12.840;2022-12-18T02:09:13;10.90;71.50
19050;DHT22;9657;45.940;12.840;2022-12-18T02:11:48;10.90;71.40
19050;DHT22;9657;45.940;12.840;2022-12-18T02:14:27;10.90;71.40
19050;DHT22;9657;45.940;12.840;2022-12-18T02:16:59;10.90;71.40
19050;DHT22;9657;45.940;12.840;2022-12-18T02:19:40;10.90;71.40
19050;DHT22;9657;45.940;12.840;2022-12-18T02:22:21;10.90;71.40
19050;DHT22;9657;45.940;12.840;2022-12-18T02:25:00;10.90;71.40
19050;DHT22;9657;45.940;12.840;2022-12-18T02:27:33;10.90;71.40
19050;DHT22;9657;45.940;12.840;2022-12-18T02:30:04;10.90;71.40
19050;DHT22;9657;45.940;12.840;2022-12-18T02:32:36;10.90;71.40
19050;DHT22;9657;45.940;12.840;2022-12-18T02:35:07;10.90;71.40
19050;DHT22;9657;45.940;12.840;2022-12-18T02:37:36;10.90;71.40
19050;DHT22;9657;45.940;12.840;2022-12-18T02:40:07;10.90;71.40
19050;DHT22;9657;45.940;12.840;2022-12-18T02:42:36;10.90;71.40
19050;DHT22;9657;45.940;12.840;2022-12-18T02:45:03;10.90;71.30
19050;DHT22;9657;45.940;12.840;2022-12-18T02:47:33;10.90;71.30
19050;DHT22;9657;45.940;12.840;2022-12-18T02:50:10;10.90;71.40
19050;DHT22;9657;45.940;12.840;2022-12-18T02:52:45;10.90;71.30
19050;DHT22;9657;45.940;12.840;2022-12-18T02:55:23;10.90;71.30
19050;DHT22;9657;45.940;12.840;2022-12-18T02:57:57;10.90;71.30
19050;DHT22;9657;45.940;12.840;2022-12-18T03:00:30;10.90;71.30
19050;DHT22;9657;45.940;12.840;2022-12-18T03:03:05;10.90;71.30
19050;DHT22;9657;45.940;12.840;2022-12-18T03:05:36;10.90;71.30
19050;DHT22;9657;45.940;12.840;2022-12-18T03:08:08;10.90;71.30
19050;DHT22;9657;45.940;12.840;2022-12-18T03:10:41;10.90;71.30
19050;DHT22;9657;45.940;12.840;2022-12-18T03:13:13;10.90;71.30
19050;DHT22;9657;45.940;12.840;2022-12-18T03:15:43;10.90;71.30
19050;DHT22;9657;45.940;12.840;2022-12-18T03:18:15;10.90;71.30
19050;DHT22;9657;45.940;12.840;2022-12-18T03:20:44;10.90;71.30
19050;DHT22;9657;45.940;12.840;2022-12-18T03:23:16;10.90;71.30
19050;DHT22;9657;45.940;12.840;2022-12-18T03:25:45;10.90;71.30
19050;DHT22;9657;45.940;12.840;2022-12-18T03:28:17;10.90;71.30
19050;DHT22;9657;45.940;12.840;2022-12-18T03:30:47;10.90;71.30
19050;DHT22;9657;45.940;12.840;2022-12-18T03:33:18;10.90;71.30
19050;DHT22;9657;45.940;12.840;2022-12-18T03:35:46;10.90;71.30
19050;DHT22;9657;45.940;12.840;2022-12-18T03:38:14;10.80;71.10
19050;DHT22;9657;45.940;12.840;2022-12-18T03:40:50;10.90;71.20
19050;DHT22;9657;45.940;12.840;2022-12-18T03:43:26;10.80;71.10
19050;DHT22;9657;45.940;12.840;2022-12-18T03:46:02;10.80;71.10
19050;DHT22;9657;45.940;12.840;2022-12-18T03:48:34;10.80;71.20
19050;DHT22;9657;45.940;12.840;2022-12-18T03:51:07;10.80;71.10
19050;DHT22;9657;45.940;12.840;2022-12-18T03:53:39;10.80;71.20
19050;DHT22;9657;45.940;12.840;2022-12-18T03:56:08;10.80;72.00
19050;DHT22;9657;45.940;12.840;2022-12-18T03:58:39;10.90;71.20
19050;DHT22;9657;45.940;12.840;2022-12-18T04:01:08;10.80;71.10
19050;DHT22;9657;45.940;12.840;2022-12-18T04:03:36;10.80;71.10
19050;DHT22;9657;45.940;12.840;2022-12-18T04:06:03;10.80;71.10
19050;DHT22;9657;45.940;12.840;2022-12-18T04:08:32;10.80;71.10
19050;DHT22;9657;45.940;12.840;2022-12-18T04:11:01;10.80;71.10
19050;DHT22;9657;45.940;12.840;2022-12-18T04:13:31;10.80;71.80
19050;DHT22;9657;45.940;12.840;2022-12-18T04:16:01;10.80;71.00
19050;DHT22;9657;45.940;12.840;2022-12-18T04:18:28;10.80;71.10
19050;DHT22;9657;45.940;12.840;2022-12-18T04:20:55;10.80;71.10
19050;DHT22;9657;45.940;12.840;2022-12-18T04:23:22;10.80;71.10
19050;DHT22;9657;45.940;12.840;2022-12-18T04:25:49;10.80;71.00
19050;DHT22;9657;45.940;12.840;2022-12-18T04:28:16;10.80;71.10
19050;DHT22;9657;45.940;12.840;2022-12-18T04:30:43;10.80;71.00
19050;DHT22;9657;45.940;12.840;2022-12-18T04:33:12;10.80;71.00
19050;DHT22;9657;45.940;12.840;2022-12-18T04:35:40;10.80;71.00
19050;DHT22;9657;45.940;12.840;2022-12-18T04:38:08;10.80;71.00
19050;DHT22;9657;45.940;12.840;2022-12-18T04:40:35;10.80;71.00
19050;DHT22;9657;45.940;12.840;2022-12-18T04:43:02;10.80;71.00
19050;DHT22;9657;45.940;12.840;2022-12-18T04:45:30;10.80;70.90
19050;DHT22;9657;45.940;12.840;2022-12-18T04:47:57;10.80;70.90
19050;DHT22;9657;45.940;12.840;2022-12-18T04:50:26;10.80;70.90
19050;DHT22;9657;45.940;12.840;2022-12-18T04:52:53;10.80;71.00
19050;DHT22;9657;45.940;12.840;2022-12-18T04:55:21;10.80;70.90
19050;DHT22;9657;45.940;12.840;2022-12-18T04:57:48;10.80;70.90
19050;DHT22;9657;45.940;12.840;2022-12-18T05:00:15;10.80;70.90
19050;DHT22;9657;45.940;12.840;2022-12-18T05:02:42;10.80;70.90
19050;DHT22;9657;45.940;12.840;2022-12-18T05:05:10;10.80;70.90
19050;DHT22;9657;45.940;12.840;2022-12-18T05:07:38;10.80;70.90
19050;DHT22;9657;45.940;12.840;2022-12-18T05:10:06;10.80;70.90
19050;DHT22;9657;45.940;12.840;2022-12-18T05:12:33;10.80;70.90
19050;DHT22;9657;45.940;12.840;2022-12-18T05:15:20;10.80;70.80
19050;DHT22;9657;45.940;12.840;2022-12-18T05:17:47;10.80;70.80
19050;DHT22;9657;45.940;12.840;2022-12-18T05:20:14;10.80;70.80
19050;DHT22;9657;45.940;12.840;2022-12-18T05:22:43;10.80;70.80
19050;DHT22;9657;45.940;12.840;2022-12-18T05:25:10;10.70;70.80
19050;DHT22;9657;45.940;12.840;2022-12-18T05:27:37;10.70;70.80
19050;DHT22;9657;45.940;12.840;2022-12-18T05:30:05;10.70;70.80
19050;DHT22;9657;45.940;12.840;2022-12-18T05:32:32;10.70;70.80
19050;DHT22;9657;45.940;12.840;2022-12-18T05:34:59;10.70;70.70
19050;DHT22;9657;45.940;12.840;2022-12-18T05:37:26;10.70;70.70
19050;DHT22;9657;45.940;12.840;2022-12-18T05:39:54;10.70;70.70
19050;DHT22;9657;45.940;12.840;2022-12-18T05:42:21;10.70;70.70
19050;DHT22;9657;45.940;12.840;2022-12-18T05:44:49;10.70;70.70
19050;DHT22;9657;45.940;12.840;2022-12-18T05:47:16;10.70;70.70
19050;DHT22;9657;45.940;12.840;2022-12-18T05:49:43;10.80;70.70
19050;DHT22;9657;45.940;12.840;2022-12-18T05:52:10;10.70;70.70
19050;DHT22;9657;45.940;12.840;2022-12-18T05:54:37;10.70;70.70
19050;DHT22;9657;45.940;12.840;2022-12-18T05:57:05;10.70;70.70
19050;DHT22;9657;45.940;12.840;2022-12-18T05:59:33;10.70;70.60
19050;DHT22;9657;45.940;12.840;2022-12-18T06:02:00;10.70;70.60
19050;DHT22;9657;45.940;12.840;2022-12-18T06:04:27;10.70;70.60
19050;DHT22;9657;45.940;12.840;2022-12-18T06:06:54;10.70;70.60
19050;DHT22;9657;45.940;12.840;2022-12-18T06:09:21;10.70;70.70
19050;DHT22;9657;45.940;12.840;2022-12-18T06:11:49;10.70;70.80
19050;DHT22;9657;45.940;12.840;2022-12-18T06:14:19;10.70;70.90
19050;DHT22;9657;45.940;12.840;2022-12-18T06:16:46;10.70;71.00
19050;DHT22;9657;45.940;12.840;2022-12-18T06:19:15;10.70;71.00
19050;DHT22;9657;45.940;12.840;2022-12-18T06:21:42;10.70;71.00
19050;DHT22;9657;45.940;12.840;2022-12-18T06:24:10;10.70;71.00
19050;DHT22;9657;45.940;12.840;2022-12-18T06:26:37;10.70;71.00
19050;DHT22;9657;45.940;12.840;2022-12-18T06:29:05;10.70;71.00
19050;DHT22;9657;45.940;12.840;2022-12-18T06:31:33;10.70;71.00
19050;DHT22;9657;45.940;12.840;2022-12-18T06:34:02;10.70;71.00
19050;DHT22;9657;45.940;12.840;2022-12-18T06:36:29;10.70;71.00
19050;DHT22;9657;45.940;12.840;2022-12-18T06:38:56;10.70;71.10
19050;DHT22;9657;45.940;12.840;2022-12-18T06:41:24;10.70;71.10
19050;DHT22;9657;45.940;12.840;2022-12-18T06:43:51;10.70;71.00
19050;DHT22;9657;45.940;12.840;2022-12-18T06:46:18;10.70;71.10
19050;DHT22;9657;45.940;12.840;2022-12-18T06:48:48;10.70;71.00
19050;DHT22;9657;45.940;12.840;2022-12-18T06:51:18;10.70;71.10
19050;DHT22;9657;45.940;12.840;2022-12-18T06:53:45;10.70;71.10
19050;DHT22;9657;45.940;12.840;2022-12-18T06:56:12;10.70;71.10
19050;DHT22;9657;45.940;12.840;2022-12-18T06:58:39;10.70;71.20
19050;DHT22;9657;45.940;12.840;2022-12-18T07:01:07;10.70;71.30
19050;DHT22;9657;45.940;12.840;2022-12-18T07:03:35;10.70;71.40
19050;DHT22;9657;45.940;12.840;2022-12-18T07:06:04;10.70;71.50
19050;DHT22;9657;45.940;12.840;2022-12-18T07:08:32;10.70;71.50
19050;DHT22;9657;45.940;12.840;2022-12-18T07:11:02;10.70;71.40
19050;DHT22;9657;45.940;12.840;2022-12-18T07:13:29;10.70;71.50
19050;DHT22;9657;45.940;12.840;2022-12-18T07:16:03;10.60;71.40
19050;DHT22;9657;45.940;12.840;2022-12-18T07:18:30;10.70;71.50
19050;DHT22;9657;45.940;12.840;2022-12-18T07:20:57;10.70;71.40
19050;DHT22;9657;45.940;12.840;2022-12-18T07:23:26;10.70;71.40
19050;DHT22;9657;45.940;12.840;2022-12-18T07:25:53;10.70;71.40
19050;DHT22;9657;45.940;12.840;2022-12-18T07:28:20;10.60;71.30
19050;DHT22;9657;45.940;12.840;2022-12-18T07:30:47;10.70;71.50
19050;DHT22;9657;45.940;12.840;2022-12-18T07:33:14;10.60;71.30
19050;DHT22;9657;45.940;12.840;2022-12-18T07:35:41;10.70;71.40
19050;DHT22;9657;45.940;12.840;2022-12-18T07:38:08;10.70;71.30
19050;DHT22;9657;45.940;12.840;2022-12-18T07:40:36;10.70;71.50
19050;DHT22;9657;45.940;12.840;2022-12-18T07:43:03;10.70;71.40
19050;DHT22;9657;45.940;12.840;2022-12-18T07:45:30;10.60;71.30
19050;DHT22;9657;45.940;12.840;2022-12-18T07:47:57;10.60;71.30
19050;DHT22;9657;45.940;12.840;2022-12-18T07:50:24;10.60;71.30
19050;DHT22;9657;45.940;12.840;2022-12-18T07:52:51;10.60;71.30
19050;DHT22;9657;45.940;12.840;2022-12-18T07:55:18;10.70;71.40
19050;DHT22;9657;45.940;12.840;2022-12-18T07:57:47;10.60;71.30
19050;DHT22;9657;45.940;12.840;2022-12-18T08:00:15;10.60;71.40
19050;DHT22;9657;45.940;12.840;2022-12-18T08:02:42;10.60;71.30
19050;DHT22;9657;45.940;12.840;2022-12-18T08:05:09;10.60;71.30
19050;DHT22;9657;45.940;12.840;2022-12-18T08:07:36;10.60;71.30
19050;DHT22;9657;45.940;12.840;2022-12-18T08:10:04;10.60;71.30
19050;DHT22;9657;45.940;12.840;2022-12-18T08:12:31;10.60;71.30
19050;DHT22;9657;45.940;12.840;2022-12-18T08:14:59;10.60;71.30
19050;DHT22;9657;45.940;12.840;2022-12-18T08:17:26;10.60;71.30
19050;DHT22;9657;45.940;12.840;2022-12-18T08:19:53;10.70;71.30
19050;DHT22;9657;45.940;12.840;2022-12-18T08:22:20;10.60;71.40
19050;DHT22;9657;45.940;12.840;2022-12-18T08:24:47;10.60;71.30
19050;DHT22;9657;45.940;12.840;2022-12-18T08:27:14;10.60;71.30
19050;DHT22;9657;45.940;12.840;2022-12-18T08:29:41;10.60;71.40
19050;DHT22;9657;45.940;12.840;2022-12-18T08:32:10;10.60;71.30
19050;DHT22;9657;45.940;12.840;2022-12-18T08:34:37;10.60;71.30
19050;DHT22;9657;45.940;12.840;2022-12-18T08:37:04;10.60;71.40
19050;DHT22;9657;45.940;12.840;2022-12-18T08:39:31;10.60;71.40
19050;DHT22;9657;45.940;12.840;2022-12-18T08:41:58;10.60;71.30
19050;DHT22;9657;45.940;12.840;2022-12-18T08:44:42;10.60;71.30
19050;DHT22;9657;45.940;12.840;2022-12-18T08:47:11;10.60;71.40
19050;DHT22;9657;45.940;12.840;2022-12-18T08:49:38;10.60;71.40
19050;DHT22;9657;45.940;12.840;2022-12-18T08:52:05;10.60;71.40
19050;DHT22;9657;45.940;12.840;2022-12-18T08:54:32;10.60;71.40
19050;DHT22;9657;45.940;12.840;2022-12-18T08:56:59;10.60;71.40
19050;DHT22;9657;45.940;12.840;2022-12-18T08:59:28;10.60;71.40
19050;DHT22;9657;45.940;12.840;2022-12-18T09:01:55;10.60;71.40
19050;DHT22;9657;45.940;12.840;2022-12-18T09:04:24;10.60;71.50
19050;DHT22;9657;45.940;12.840;2022-12-18T09:06:51;10.60;71.40
19050;DHT22;9657;45.940;12.840;2022-12-18T09:09:18;10.60;71.50
19050;DHT22;9657;45.940;12.840;2022-12-18T09:11:45;10.60;71.40
19050;DHT22;9657;45.940;12.840;2022-12-18T09:14:12;10.60;71.50
19050;DHT22;9657;45.940;12.840;2022-12-18T09:16:39;10.60;71.40
19050;DHT22;9657;45.940;12.840;2022-12-18T09:19:06;10.60;71.40
19050;DHT22;9657;45.940;12.840;2022-12-18T09:21:37;10.60;71.50
19050;DHT22;9657;45.940;12.840;2022-12-18T09:24:05;10.60;71.50
19050;DHT22;9657;45.940;12.840;2022-12-18T09:26:32;10.60;71.50
19050;DHT22;9657;45.940;12.840;2022-12-18T09:28:59;10.60;71.50
19050;DHT22;9657;45.940;12.840;2022-12-18T09:31:26;10.60;71.50
19050;DHT22;9657;45.940;12.840;2022-12-18T09:33:55;10.60;71.50
19050;DHT22;9657;45.940;12.840;2022-12-18T09:36:22;10.60;71.50
19050;DHT22;9657;45.940;12.840;2022-12-18T09:38:50;10.60;71.50
19050;DHT22;9657;45.940;12.840;2022-12-18T09:41:36;10.60;71.50
19050;DHT22;9657;45.940;12.840;2022-12-18T09:44:12;10.60;71.50
19050;DHT22;9657;45.940;12.840;2022-12-18T09:46:45;10.60;71.50
19050;DHT22;9657;45.940;12.840;2022-12-18T09:49:16;10.60;71.50
19050;DHT22;9657;45.940;12.840;2022-12-18T09:51:47;10.60;71.50
19050;DHT22;9657;45.940;12.840;2022-12-18T09:54:21;10.60;71.50
19050;DHT22;9657;45.940;12.840;2022-12-18T09:56:49;10.60;71.50
19050;DHT22;9657;45.940;12.840;2022-12-18T09:59:22;10.60;71.50
19050;DHT22;9657;45.940;12.840;2022-12-18T10:01:50;10.60;71.40
19050;DHT22;9657;45.940;12.840;2022-12-18T10:04:17;10.60;71.50
19050;DHT22;9657;45.940;12.840;2022-12-18T10:06:50;10.60;71.40
19050;DHT22;9657;45.940;12.840;2022-12-18T10:09:27;10.60;71.50
19050;DHT22;9657;45.940;12.840;2022-12-18T10:12:02;10.60;71.40
19050;DHT22;9657;45.940;12.840;2022-12-18T10:14:36;10.60;71.40
19050;DHT22;9657;45.940;12.840;2022-12-18T10:17:14;10.60;71.40
19050;DHT22;9657;45.940;12.840;2022-12-18T10:19:47;10.60;71.40
19050;DHT22;9657;45.940;12.840;2022-12-18T10:22:28;10.60;71.40
19050;DHT22;9657;45.940;12.840;2022-12-18T10:25:03;10.60;71.40
19050;DHT22;9657;45.940;12.840;2022-12-18T10:27:32;10.70;71.50
19050;DHT22;9657;45.940;12.840;2022-12-18T10:30:04;10.60;71.40
19050;DHT22;9657;45.940;12.840;2022-12-18T10:32:31;10.60;71.40
19050;DHT22;9657;45.940;12.840;2022-12-18T10:34:58;10.60;71.40
19050;DHT22;9657;45.940;12.840;2022-12-18T10:37:27;10.60;71.40
19050;DHT22;9657;45.940;12.840;2022-12-18T10:40:17;10.60;71.50
19050;DHT22;9657;45.940;12.840;2022-12-18T10:42:44;10.60;71.40
19050;DHT22;9657;45.940;12.840;2022-12-18T10:45:12;10.60;71.40
19050;DHT22;9657;45.940;12.840;2022-12-18T10:47:43;10.60;71.50
19050;DHT22;9657;45.940;12.840;2022-12-18T10:50:19;10.60;71.50
19050;DHT22;9657;45.940;12.840;2022-12-18T10:52:54;10.60;71.50
19050;DHT22;9657;45.940;12.840;2022-12-18T10:55:25;10.60;71.50
19050;DHT22;9657;45.940;12.840;2022-12-18T10:57:53;10.70;71.60
19050;DHT22;9657;45.940;12.840;2022-12-18T11:00:23;10.60;71.50
19050;DHT22;9657;45.940;12.840;2022-12-18T11:02:51;10.60;71.50
19050;DHT22;9657;45.940;12.840;2022-12-18T11:05:29;10.60;71.50
19050;DHT22;9657;45.940;12.840;2022-12-18T11:07:58;10.60;71.50
19050;DHT22;9657;45.940;12.840;2022-12-18T11:10:30;10.60;71.50
19050;DHT22;9657;45.940;12.840;2022-12-18T11:13:12;10.60;71.50
19050;DHT22;9657;45.940;12.840;2022-12-18T11:15:43;10.60;71.50
19050;DHT22;9657;45.940;12.840;2022-12-18T11:18:17;10.60;71.50
19050;DHT22;9657;45.940;12.840;2022-12-18T11:20:52;10.70;71.50
19050;DHT22;9657;45.940;12.840;2022-12-18T11:23:21;10.70;71.50
19050;DHT22;9657;45.940;12.840;2022-12-18T11:25:56;10.60;71.50
19050;DHT22;9657;45.940;12.840;2022-12-18T11:28:35;10.70;71.50
19050;DHT22;9657;45.940;12.840;2022-12-18T11:31:18;10.60;71.40
19050;DHT22;9657;45.940;12.840;2022-12-18T11:33:49;10.60;71.40
19050;DHT22;9657;45.940;12.840;2022-12-18T11:36:17;10.60;71.50
19050;DHT22;9657;45.940;12.840;2022-12-18T11:38:45;10.70;71.50
19050;DHT22;9657;45.940;12.840;2022-12-18T11:41:20;10.70;71.50
19050;DHT22;9657;45.940;12.840;2022-12-18T11:43:52;10.70;71.50
19050;DHT22;9657;45.940;12.840;2022-12-18T11:46:26;10.70;71.50
19050;DHT22;9657;45.940;12.840;2022-12-18T11:49:01;10.70;71.50
19050;DHT22;9657;45.940;12.840;2022-12-18T11:51:33;10.70;71.50
19050;DHT22;9657;45.940;12.840;2022-12-18T11:54:09;10.70;71.50
19050;DHT22;9657;45.940;12.840;2022-12-18T11:56:45;10.70;71.50
19050;DHT22;9657;45.940;12.840;2022-12-18T11:59:19;10.70;71.40
19050;DHT22;9657;45.940;12.840;2022-12-18T12:01:54;10.70;71.40
19050;DHT22;9657;45.940;12.840;2022-12-18T12:04:46;10.70;71.40
19050;DHT22;9657;45.940;12.840;2022-12-18T12:07:33;10.70;71.40
19050;DHT22;9657;45.940;12.840;2022-12-18T12:10:12;10.70;71.40
19050;DHT22;9657;45.940;12.840;2022-12-18T12:12:59;10.70;71.40
19050;DHT22;9657;45.940;12.840;2022-12-18T12:15:38;10.70;71.40
19050;DHT22;9657;45.940;12.840;2022-12-18T12:18:18;10.70;71.50
19050;DHT22;9657;45.940;12.840;2022-12-18T12:20:53;10.70;71.40
19050;DHT22;9657;45.940;12.840;2022-12-18T12:23:30;10.70;71.30
19050;DHT22;9657;45.940;12.840;2022-12-18T12:26:06;10.70;71.40
19050;DHT22;9657;45.940;12.840;2022-12-18T12:28:59;10.70;71.30
19050;DHT22;9657;45.940;12.840;2022-12-18T12:31:42;10.70;71.30
19050;DHT22;9657;45.940;12.840;2022-12-18T12:34:18;10.70;71.30
19050;DHT22;9657;45.940;12.840;2022-12-18T12:36:58;10.70;71.30
19050;DHT22;9657;45.940;12.840;2022-12-18T12:39:31;10.70;71.40
19050;DHT22;9657;45.940;12.840;2022-12-18T12:42:00;10.70;71.30
19050;DHT22;9657;45.940;12.840;2022-12-18T12:44:49;10.70;71.40
19050;DHT22;9657;45.940;12.840;2022-12-18T12:47:21;10.70;71.30
19050;DHT22;9657;45.940;12.840;2022-12-18T12:49:50;10.70;71.40
19050;DHT22;9657;45.940;12.840;2022-12-18T12:52:25;10.70;71.30
19050;DHT22;9657;45.940;12.840;2022-12-18T12:54:54;10.70;71.30
19050;DHT22;9657;45.940;12.840;2022-12-18T12:57:25;10.70;71.30
19050;DHT22;9657;45.940;12.840;2022-12-18T13:00:03;10.70;71.30
19050;DHT22;9657;45.940;12.840;2022-12-18T13:02:35;10.70;71.30
19050;DHT22;9657;45.940;12.840;2022-12-18T13:05:13;10.70;71.30
19050;DHT22;9657;45.940;12.840;2022-12-18T13:07:49;10.70;71.30
19050;DHT22;9657;45.940;12.840;2022-12-18T13:10:30;10.70;71.30
19050;DHT22;9657;45.940;12.840;2022-12-18T13:12:59;10.70;71.30
19050;DHT22;9657;45.940;12.840;2022-12-18T13:15:32;10.70;71.30
19050;DHT22;9657;45.940;12.840;2022-12-18T13:18:11;10.80;71.40
19050;DHT22;9657;45.940;12.840;2022-12-18T13:20:41;10.70;71.30
19050;DHT22;9657;45.940;12.840;2022-12-18T13:23:25;10.70;71.30
19050;DHT22;9657;45.940;12.840;2022-12-18T13:25:54;10.70;71.30
19050;DHT22;9657;45.940;12.840;2022-12-18T13:28:22;10.70;71.30
19050;DHT22;9657;45.940;12.840;2022-12-18T13:30:56;10.70;71.30
19050;DHT22;9657;45.940;12.840;2022-12-18T13:33:37;10.70;71.30
19050;DHT22;9657;45.940;12.840;2022-12-18T13:36:12;10.80;71.40
19050;DHT22;9657;45.940;12.840;2022-12-18T13:38:41;10.80;71.40
19050;DHT22;9657;45.940;12.840;2022-12-18T13:41:24;10.70;71.30
19050;DHT22;9657;45.940;12.840;2022-12-18T13:43:53;10.70;71.30
19050;DHT22;9657;45.940;12.840;2022-12-18T13:46:28;10.80;71.30
19050;DHT22;9657;45.940;12.840;2022-12-18T13:48:58;10.80;71.40
19050;DHT22;9657;45.940;12.840;2022-12-18T13:51:27;10.80;71.30
19050;DHT22;9657;45.940;12.840;2022-12-18T13:53:58;10.80;71.40
19050;DHT22;9657;45.940;12.840;2022-12-18T13:56:26;10.80;71.40
19050;DHT22;9657;45.940;12.840;2022-12-18T13:59:08;10.80;71.40
19050;DHT22;9657;45.940;12.840;2022-12-18T14:01:44;10.80;72.10
19050;DHT22;9657;45.940;12.840;2022-12-18T14:04:12;10.80;71.50
19050;DHT22;9657;45.940;12.840;2022-12-18T14:06:45;10.80;71.40
19050;DHT22;9657;45.940;12.840;2022-12-18T14:09:14;10.80;71.30
19050;DHT22;9657;45.940;12.840;2022-12-18T14:11:46;10.80;71.30
19050;DHT22;9657;45.940;12.840;2022-12-18T14:14:15;10.80;71.30
19050;DHT22;9657;45.940;12.840;2022-12-18T14:16:45;10.80;71.40
19050;DHT22;9657;45.940;12.840;2022-12-18T14:19:16;10.80;71.40
19050;DHT22;9657;45.940;12.840;2022-12-18T14:21:48;10.80;71.40
19050;DHT22;9657;45.940;12.840;2022-12-18T14:24:17;10.80;71.40
19050;DHT22;9657;45.940;12.840;2022-12-18T14:26:45;10.80;71.30
19050;DHT22;9657;45.940;12.840;2022-12-18T14:29:22;10.80;71.30
19050;DHT22;9657;45.940;12.840;2022-12-18T14:32:09;10.80;71.30
19050;DHT22;9657;45.940;12.840;2022-12-18T14:34:37;10.80;71.30
19050;DHT22;9657;45.940;12.840;2022-12-18T14:37:04;10.80;71.30
19050;DHT22;9657;45.940;12.840;2022-12-18T14:39:31;10.80;71.30
19050;DHT22;9657;45.940;12.840;2022-12-18T14:41:58;10.80;71.30
19050;DHT22;9657;45.940;12.840;2022-12-18T14:44:25;10.80;71.40
19050;DHT22;9657;45.940;12.840;2022-12-18T14:46:52;10.80;71.30
19050;DHT22;9657;45.940;12.840;2022-12-18T14:49:24;10.80;71.30
19050;DHT22;9657;45.940;12.840;2022-12-18T14:51:54;10.80;71.30
19050;DHT22;9657;45.940;12.840;2022-12-18T14:54:23;10.80;71.30
19050;DHT22;9657;45.940;12.840;2022-12-18T14:56:54;10.80;71.30
19050;DHT22;9657;45.940;12.840;2022-12-18T14:59:24;10.80;71.30
19050;DHT22;9657;45.940;12.840;2022-12-18T15:01:58;10.80;71.30
19050;DHT22;9657;45.940;12.840;2022-12-18T15:04:29;10.80;71.30
19050;DHT22;9657;45.940;12.840;2022-12-18T15:07:12;10.80;71.30
19050;DHT22;9657;45.940;12.840;2022-12-18T15:09:41;10.80;71.30
19050;DHT22;9657;45.940;12.840;2022-12-18T15:12:25;10.80;71.30
19050;DHT22;9657;45.940;12.840;2022-12-18T15:14:52;10.80;71.30
19050;DHT22;9657;45.940;12.840;2022-12-18T15:17:21;10.80;71.30
19050;DHT22;9657;45.940;12.840;2022-12-18T15:19:52;10.80;71.30
19050;DHT22;9657;45.940;12.840;2022-12-18T15:22:23;10.80;71.30
19050;DHT22;9657;45.940;12.840;2022-12-18T15:24:51;10.80;71.30
19050;DHT22;9657;45.940;12.840;2022-12-18T15:30:21;10.80;71.30
19050;DHT22;9657;45.940;12.840;2022-12-18T15:32:49;10.80;71.30
19050;DHT22;9657;45.940;12.840;2022-12-18T15:35:22;10.80;71.30
19050;DHT22;9657;45.940;12.840;2022-12-18T15:37:50;10.80;71.30
19050;DHT22;9657;45.940;12.840;2022-12-18T15:40:19;10.80;71.30
19050;DHT22;9657;45.940;12.840;2022-12-18T15:42:47;10.80;71.30
19050;DHT22;9657;45.940;12.840;2022-12-18T15:45:33;10.80;71.30
19050;DHT22;9657;45.940;12.840;2022-12-18T15:48:04;10.80;71.30
19050;DHT22;9657;45.940;12.840;2022-12-18T15:50:33;10.80;71.40
19050;DHT22;9657;45.940;12.840;2022-12-18T15:53:00;10.80;71.50
19050;DHT22;9657;45.940;12.840;2022-12-18T15:55:27;10.80;71.60
19050;DHT22;9657;45.940;12.840;2022-12-18T15:58:11;10.80;71.70